createdAt,value
2019-01-23T00:03:38.094Z,75.20
2019-01-23T00:09:39.067Z,75.50
2019-01-23T00:13:43.611Z,76.00
2019-01-23T01:20:11.111Z,74.60
2019-01-23T02:00:24.875Z,74.80
2019-01-23T02:17:05.943Z,77.90
2019-01-23T02:21:10.481Z,77.90
2019-01-23T02:28:38.982Z,76.80
2019-01-23T02:35:24.219Z,77.10
2019-01-23T02:39:28.789Z,77.50
2019-01-23T02:43:35.059Z,77.90
2019-01-23T02:51:35.248Z,78.20
2019-01-23T02:55:39.779Z,78.40
2019-01-23T02:59:44.286Z,78.40
2019-01-23T03:03:48.802Z,78.70
2019-01-23T03:07:53.351Z,78.60
2019-01-23T03:11:57.882Z,78.50
2019-01-23T03:16:02.374Z,78.70
2019-01-23T03:20:08.415Z,78.60
2019-01-23T03:28:16.234Z,78.80
2019-01-23T03:32:20.736Z,79.00
2019-01-23T03:38:02.023Z,79.20
2019-01-23T03:42:06.886Z,79.60
2019-01-23T03:46:11.427Z,79.50
2019-01-23T03:54:23.357Z,79.70
2019-01-23T03:58:27.855Z,79.50
2019-01-23T04:02:32.500Z,79.10
2019-01-23T04:06:37.031Z,79.10
2019-01-23T04:10:41.567Z,79.90
2019-01-23T04:15:22.891Z,79.70
2019-01-23T04:19:27.444Z,80.20
2019-01-23T04:25:16.644Z,80.00
2019-01-23T04:29:21.136Z,80.20
2019-01-23T04:33:25.678Z,80.00
2019-01-23T04:37:30.206Z,80.20
2019-01-23T04:41:34.782Z,80.50
2019-01-23T04:45:39.309Z,79.90
2019-01-23T04:49:43.809Z,80.00
2019-01-23T04:53:49.553Z,80.20
2019-01-23T04:57:54.079Z,80.10
2019-01-23T05:02:34.571Z,79.30
2019-01-23T05:06:39.107Z,79.60
2019-01-23T05:10:43.640Z,79.90
2019-01-23T05:14:48.120Z,79.70
2019-01-23T05:18:52.651Z,78.70
2019-01-23T05:22:57.178Z,78.60
2019-01-23T05:29:38.266Z,78.60
2019-01-23T05:33:42.810Z,79.10
2019-01-23T05:39:38.214Z,78.80
2019-01-23T05:43:42.814Z,79.50
2019-01-23T05:47:47.349Z,79.30
2019-01-23T05:51:51.879Z,79.30
2019-01-23T05:55:56.410Z,79.30
2019-01-23T06:00:02.621Z,79.10
2019-01-23T06:04:07.095Z,78.80
2019-01-23T06:11:07.522Z,78.70
2019-01-23T06:15:12.443Z,78.60
2019-01-23T06:19:16.940Z,78.70
2019-01-23T06:23:21.575Z,78.80
2019-01-23T06:27:26.107Z,78.80
2019-01-23T06:31:30.651Z,78.70
2019-01-23T06:35:35.159Z,79.00
2019-01-23T06:43:42.400Z,78.80
2019-01-23T06:47:47.612Z,78.90
2019-01-23T06:51:52.110Z,78.70
2019-01-23T06:55:56.654Z,78.70
2019-01-23T07:00:01.191Z,78.90
2019-01-23T07:04:05.934Z,78.70
2019-01-23T07:11:59.247Z,78.70
2019-01-23T07:16:03.783Z,78.60
2019-01-23T07:20:11.475Z,78.90
2019-01-23T07:24:15.976Z,79.00
2019-01-23T07:28:20.507Z,79.20
2019-01-23T07:34:29.296Z,79.10
2019-01-23T07:38:33.864Z,79.10
2019-01-23T07:42:38.415Z,79.10
2019-01-23T07:46:42.938Z,79.10
2019-01-23T07:50:47.450Z,79.00
2019-01-23T07:54:51.979Z,79.20
2019-01-23T07:58:56.515Z,78.90
2019-01-23T08:03:01.076Z,79.50
2019-01-23T08:07:05.586Z,79.00
2019-01-23T08:11:10.117Z,79.00
2019-01-23T08:15:17.679Z,79.10
2019-01-23T08:19:22.237Z,79.70
2019-01-23T08:27:33.843Z,79.30
2019-01-23T08:31:38.375Z,79.90
2019-01-23T08:40:22.905Z,81.00
2019-01-23T08:44:27.473Z,81.20
2019-01-23T08:48:31.942Z,81.00
2019-01-23T08:52:36.519Z,81.10
2019-01-23T08:57:50.031Z,80.80
2019-01-23T09:01:54.584Z,80.30
2019-01-23T09:07:44.348Z,80.00
2019-01-23T09:18:37.575Z,80.30
2019-01-23T09:22:42.117Z,80.30
2019-01-23T09:26:46.663Z,81.00
2019-01-23T09:31:23.119Z,80.90
2019-01-23T09:36:07.421Z,80.70
2019-01-23T09:40:39.675Z,80.70
2019-01-23T09:45:07.899Z,81.70
2019-01-23T09:49:50.522Z,81.30
2019-01-23T09:54:03.521Z,81.60
2019-01-23T09:58:09.978Z,81.70
2019-01-23T10:02:33.726Z,81.90
2019-01-23T10:06:38.280Z,81.20
2019-01-23T10:11:48.859Z,81.40
2019-01-23T10:16:16.242Z,81.90
2019-01-23T10:20:20.768Z,81.40
2019-01-23T10:24:25.272Z,81.80
2019-01-23T10:28:29.819Z,82.10
2019-01-23T10:42:08.130Z,81.90
2019-01-23T10:52:38.647Z,82.00
2019-01-23T10:56:45.944Z,82.20
2019-01-23T11:00:50.524Z,82.70
2019-01-23T11:07:49.603Z,82.70
2019-01-23T11:17:23.109Z,82.30
2019-01-23T11:28:24.273Z,81.60
2019-01-23T11:32:29.019Z,81.40
2019-01-23T11:38:45.305Z,81.40
2019-01-23T11:42:49.846Z,81.50
2019-01-23T12:01:14.741Z,81.30
2019-01-23T12:06:48.857Z,81.20
2019-01-23T12:10:57.960Z,81.20
2019-01-23T12:18:59.159Z,80.80
2019-01-23T12:23:03.975Z,80.40
2019-01-23T12:27:57.531Z,80.80
2019-01-23T12:32:59.490Z,80.90
2019-01-23T12:38:42.767Z,80.70
2019-01-23T12:42:47.344Z,80.60
2019-01-23T12:50:09.291Z,80.00
2019-01-23T12:57:23.623Z,80.20
2019-01-23T13:01:28.180Z,80.90
2019-01-23T13:19:17.617Z,80.10
2019-01-23T13:29:01.207Z,80.50
2019-01-23T13:40:17.965Z,79.40
2019-01-23T13:45:52.755Z,80.20
2019-01-23T13:49:57.280Z,79.70
2019-01-23T13:54:21.351Z,80.00
2019-01-23T14:03:15.390Z,79.80
2019-01-23T14:08:39.003Z,79.60
2019-01-23T14:12:43.540Z,79.10
2019-01-23T14:16:48.044Z,80.10
2019-01-23T14:20:52.591Z,80.00
2019-01-23T14:32:09.539Z,79.70
2019-01-23T14:38:40.967Z,79.90
2019-01-23T14:48:11.248Z,79.70
2019-01-23T14:52:15.791Z,79.90
2019-01-23T14:57:07.143Z,79.80
2019-01-23T15:19:49.434Z,80.00
2019-01-23T15:23:53.991Z,80.00
2019-01-23T15:27:58.534Z,79.90
2019-01-23T15:45:37.074Z,80.10
2019-01-23T15:51:04.816Z,80.10
2019-01-23T15:55:11.467Z,80.30
2019-01-23T16:04:12.052Z,80.20
2019-01-23T16:12:41.443Z,80.50
2019-01-23T16:20:20.858Z,80.60
2019-01-23T16:26:23.986Z,80.70
2019-01-23T16:30:39.542Z,80.90
2019-01-23T16:35:23.144Z,81.00
2019-01-23T16:39:27.713Z,80.60
2019-01-23T16:45:58.719Z,81.00
2019-01-23T16:52:36.875Z,81.10
2019-01-23T16:57:46.491Z,80.70
2019-01-23T17:01:51.047Z,81.30
2019-01-23T17:05:55.632Z,81.10
2019-01-23T17:10:00.231Z,81.50
2019-01-23T17:14:57.395Z,81.60
2019-01-23T17:23:39.471Z,81.50
2019-01-23T17:41:14.760Z,81.60
2019-01-23T17:48:13.047Z,81.80
2019-01-23T18:30:20.819Z,81.00
2019-01-23T18:36:17.063Z,81.00
2019-01-23T18:44:59.207Z,80.90
2019-01-23T18:56:29.402Z,81.10
2019-01-23T19:01:50.931Z,80.90
2019-01-23T19:34:15.749Z,80.60
2019-01-23T19:38:20.319Z,81.30
2019-01-23T19:52:54.671Z,81.00
2019-01-23T20:02:30.287Z,81.00
2019-01-23T20:12:40.000Z,80.80
2019-01-23T20:17:35.635Z,80.20
2019-01-23T20:21:40.171Z,80.30
2019-01-23T20:25:44.728Z,78.40
2019-01-23T20:50:39.055Z,80.40
2019-01-23T21:03:05.982Z,80.40
2019-01-23T21:11:25.683Z,80.60
2019-01-23T21:15:31.853Z,80.60
2019-01-23T21:19:36.414Z,80.80
2019-01-23T21:23:41.021Z,81.40
2019-01-23T21:27:45.923Z,81.30
2019-01-23T21:31:50.451Z,80.40
2019-01-23T21:35:54.963Z,80.10
2019-01-23T21:41:03.088Z,80.20
2019-01-23T21:45:09.279Z,81.10
2019-01-23T21:49:13.805Z,80.80
2019-01-23T21:54:11.261Z,80.00
2019-01-23T22:05:50.519Z,80.20
2019-01-23T22:13:45.530Z,80.20
2019-01-23T22:20:58.139Z,80.40
2019-01-23T22:32:45.422Z,80.30
2019-01-23T22:36:49.970Z,80.40
2019-01-23T22:40:54.551Z,80.70
2019-01-23T22:46:04.062Z,80.50
2019-01-23T22:50:11.711Z,81.20
2019-01-23T22:54:16.242Z,81.00
2019-01-23T22:58:20.743Z,81.10
2019-01-23T23:02:25.279Z,80.20
2019-01-23T23:06:29.911Z,80.80
2019-01-23T23:10:34.559Z,79.70
2019-01-23T23:14:39.076Z,80.50
2019-01-23T23:18:43.619Z,80.50
2019-01-23T23:23:20.515Z,79.70
2019-01-23T23:27:25.046Z,80.30
2019-01-23T23:33:19.023Z,79.50
2019-01-23T23:49:26.934Z,79.70
2019-01-23T23:54:17.686Z,79.70
